sensor_id;sensor_type;location;lat;lon;timestamp;P1;durP1;ratioP1;P2;durP2;ratioP2
35225;SDS011;21813;49.686;21.766;2023-09-08T00:02:35;29.70;;;18.13;;
35225;SDS011;21813;49.686;21.766;2023-09-08T00:08:30;32.03;;;18.33;;
35225;SDS011;21813;49.686;21.766;2023-09-08T00:11:21;30.33;;;16.83;;
35225;SDS011;21813;49.686;21.766;2023-09-08T00:17:43;24.73;;;16.58;;
35225;SDS011;21813;49.686;21.766;2023-09-08T00:20:47;28.90;;;17.75;;
35225;SDS011;21813;49.686;21.766;2023-09-08T00:27:12;25.13;;;15.98;;
35225;SDS011;21813;49.686;21.766;2023-09-08T01:11:55;20.83;;;13.13;;
35225;SDS011;21813;49.686;21.766;2023-09-08T01:18:14;27.73;;;15.27;;
35225;SDS011;21813;49.686;21.766;2023-09-08T01:35:41;24.13;;;15.07;;
35225;SDS011;21813;49.686;21.766;2023-09-08T01:38:07;25.17;;;14.65;;
35225;SDS011;21813;49.686;21.766;2023-09-08T01:40:50;26.23;;;15.10;;
35225;SDS011;21813;49.686;21.766;2023-09-08T01:43:16;23.58;;;15.48;;
35225;SDS011;21813;49.686;21.766;2023-09-08T01:45:45;24.10;;;14.88;;
35225;SDS011;21813;49.686;21.766;2023-09-08T01:48:27;26.67;;;15.30;;
35225;SDS011;21813;49.686;21.766;2023-09-08T01:50:55;25.98;;;15.75;;
35225;SDS011;21813;49.686;21.766;2023-09-08T01:53:36;25.10;;;14.10;;
35225;SDS011;21813;49.686;21.766;2023-09-08T01:56:19;22.52;;;13.57;;
35225;SDS011;21813;49.686;21.766;2023-09-08T01:59:02;19.17;;;12.15;;
35225;SDS011;21813;49.686;21.766;2023-09-08T02:01:36;21.20;;;12.23;;
35225;SDS011;21813;49.686;21.766;2023-09-08T02:04:02;17.13;;;11.63;;
35225;SDS011;21813;49.686;21.766;2023-09-08T02:06:42;24.80;;;11.68;;
35225;SDS011;21813;49.686;21.766;2023-09-08T02:09:08;15.43;;;11.50;;
35225;SDS011;21813;49.686;21.766;2023-09-08T02:11:43;19.42;;;10.93;;
35225;SDS011;21813;49.686;21.766;2023-09-08T02:14:08;22.02;;;12.63;;
35225;SDS011;21813;49.686;21.766;2023-09-08T02:16:36;22.33;;;11.95;;
35225;SDS011;21813;49.686;21.766;2023-09-08T02:19:02;23.30;;;12.50;;
35225;SDS011;21813;49.686;21.766;2023-09-08T02:21:29;21.00;;;12.35;;
35225;SDS011;21813;49.686;21.766;2023-09-08T02:24:04;18.23;;;11.65;;
35225;SDS011;21813;49.686;21.766;2023-09-08T02:26:35;19.92;;;12.68;;
35225;SDS011;21813;49.686;21.766;2023-09-08T02:29:00;15.88;;;11.50;;
35225;SDS011;21813;49.686;21.766;2023-09-08T02:31:35;16.77;;;11.50;;
35225;SDS011;21813;49.686;21.766;2023-09-08T02:34:00;16.15;;;11.55;;
35225;SDS011;21813;49.686;21.766;2023-09-08T02:36:29;17.77;;;11.23;;
35225;SDS011;21813;49.686;21.766;2023-09-08T02:38:57;22.10;;;13.45;;
35225;SDS011;21813;49.686;21.766;2023-09-08T02:45:22;20.98;;;12.30;;
35225;SDS011;21813;49.686;21.766;2023-09-08T02:51:04;19.45;;;12.63;;
35225;SDS011;21813;49.686;21.766;2023-09-08T02:53:33;22.98;;;13.38;;
35225;SDS011;21813;49.686;21.766;2023-09-08T02:55:59;20.88;;;13.15;;
35225;SDS011;21813;49.686;21.766;2023-09-08T02:58:35;20.05;;;12.40;;
35225;SDS011;21813;49.686;21.766;2023-09-08T03:01:13;25.58;;;15.98;;
35225;SDS011;21813;49.686;21.766;2023-09-08T03:03:43;23.60;;;14.85;;
35225;SDS011;21813;49.686;21.766;2023-09-08T03:06:09;24.40;;;15.07;;
35225;SDS011;21813;49.686;21.766;2023-09-08T03:08:40;25.70;;;14.82;;
35225;SDS011;21813;49.686;21.766;2023-09-08T03:11:07;23.95;;;15.05;;
35225;SDS011;21813;49.686;21.766;2023-09-08T03:13:43;24.27;;;15.52;;
35225;SDS011;21813;49.686;21.766;2023-09-08T03:16:12;26.45;;;14.70;;
35225;SDS011;21813;49.686;21.766;2023-09-08T03:18:42;25.33;;;15.13;;
35225;SDS011;21813;49.686;21.766;2023-09-08T03:21:08;21.88;;;14.50;;
35225;SDS011;21813;49.686;21.766;2023-09-08T03:26:57;23.52;;;14.35;;
35225;SDS011;21813;49.686;21.766;2023-09-08T03:32:30;20.37;;;13.97;;
35225;SDS011;21813;49.686;21.766;2023-09-08T03:51:34;17.60;;;13.27;;
35225;SDS011;21813;49.686;21.766;2023-09-08T03:54:07;18.38;;;13.25;;
35225;SDS011;21813;49.686;21.766;2023-09-08T03:56:44;16.80;;;12.23;;
35225;SDS011;21813;49.686;21.766;2023-09-08T03:59:10;20.50;;;14.07;;
35225;SDS011;21813;49.686;21.766;2023-09-08T04:01:43;21.35;;;12.02;;
35225;SDS011;21813;49.686;21.766;2023-09-08T04:04:15;21.98;;;12.73;;
35225;SDS011;21813;49.686;21.766;2023-09-08T04:06:42;22.45;;;13.43;;
35225;SDS011;21813;49.686;21.766;2023-09-08T04:09:14;16.70;;;11.30;;
35225;SDS011;21813;49.686;21.766;2023-09-08T04:11:57;18.77;;;12.90;;
35225;SDS011;21813;49.686;21.766;2023-09-08T04:14:25;17.50;;;11.73;;
35225;SDS011;21813;49.686;21.766;2023-09-08T04:17:13;23.08;;;13.00;;
35225;SDS011;21813;49.686;21.766;2023-09-08T04:20:33;20.52;;;12.23;;
35225;SDS011;21813;49.686;21.766;2023-09-08T04:22:59;28.85;;;13.05;;
35225;SDS011;21813;49.686;21.766;2023-09-08T04:25:47;16.05;;;12.90;;
35225;SDS011;21813;49.686;21.766;2023-09-08T04:30:57;16.38;;;11.85;;
35225;SDS011;21813;49.686;21.766;2023-09-08T04:33:27;16.65;;;11.50;;
35225;SDS011;21813;49.686;21.766;2023-09-08T04:35:54;16.90;;;12.30;;
35225;SDS011;21813;49.686;21.766;2023-09-08T04:41:25;12.77;;;9.50;;
35225;SDS011;21813;49.686;21.766;2023-09-08T04:43:59;15.55;;;11.63;;
35225;SDS011;21813;49.686;21.766;2023-09-08T05:02:29;15.48;;;11.15;;
35225;SDS011;21813;49.686;21.766;2023-09-08T05:05:30;17.63;;;11.48;;
35225;SDS011;21813;49.686;21.766;2023-09-08T05:07:57;20.27;;;12.55;;
35225;SDS011;21813;49.686;21.766;2023-09-08T05:10:23;15.32;;;11.88;;
35225;SDS011;21813;49.686;21.766;2023-09-08T05:12:57;19.52;;;13.30;;
35225;SDS011;21813;49.686;21.766;2023-09-08T05:15:22;16.77;;;12.75;;
35225;SDS011;21813;49.686;21.766;2023-09-08T05:17:58;18.75;;;12.95;;
35225;SDS011;21813;49.686;21.766;2023-09-08T05:21:09;15.93;;;12.45;;
35225;SDS011;21813;49.686;21.766;2023-09-08T05:27:21;16.27;;;12.80;;
35225;SDS011;21813;49.686;21.766;2023-09-08T05:30:01;16.75;;;12.48;;
35225;SDS011;21813;49.686;21.766;2023-09-08T05:36:16;19.48;;;12.23;;
35225;SDS011;21813;49.686;21.766;2023-09-08T05:38:41;17.10;;;12.60;;
35225;SDS011;21813;49.686;21.766;2023-09-08T05:41:11;19.83;;;12.75;;
35225;SDS011;21813;49.686;21.766;2023-09-08T05:46:15;17.50;;;11.73;;
35225;SDS011;21813;49.686;21.766;2023-09-08T05:48:54;19.58;;;12.93;;
35225;SDS011;21813;49.686;21.766;2023-09-08T05:51:19;19.88;;;12.77;;
35225;SDS011;21813;49.686;21.766;2023-09-08T05:53:46;15.10;;;11.95;;
35225;SDS011;21813;49.686;21.766;2023-09-08T05:56:12;14.50;;;11.43;;
35225;SDS011;21813;49.686;21.766;2023-09-08T05:58:43;20.55;;;11.98;;
35225;SDS011;21813;49.686;21.766;2023-09-08T06:01:09;17.67;;;12.82;;
35225;SDS011;21813;49.686;21.766;2023-09-08T06:03:36;15.95;;;11.32;;
35225;SDS011;21813;49.686;21.766;2023-09-08T06:06:01;16.50;;;11.93;;
35225;SDS011;21813;49.686;21.766;2023-09-08T06:08:29;16.65;;;11.07;;
35225;SDS011;21813;49.686;21.766;2023-09-08T06:10:55;15.57;;;11.75;;
35225;SDS011;21813;49.686;21.766;2023-09-08T06:13:22;15.75;;;11.57;;
35225;SDS011;21813;49.686;21.766;2023-09-08T06:15:48;13.85;;;10.18;;
35225;SDS011;21813;49.686;21.766;2023-09-08T06:18:15;14.32;;;9.95;;
35225;SDS011;21813;49.686;21.766;2023-09-08T06:20:47;20.58;;;11.00;;
35225;SDS011;21813;49.686;21.766;2023-09-08T06:23:15;20.38;;;9.60;;
35225;SDS011;21813;49.686;21.766;2023-09-08T06:25:40;16.00;;;9.43;;
35225;SDS011;21813;49.686;21.766;2023-09-08T06:28:11;16.60;;;8.43;;
35225;SDS011;21813;49.686;21.766;2023-09-08T06:30:39;14.93;;;10.15;;
35225;SDS011;21813;49.686;21.766;2023-09-08T06:33:08;15.93;;;8.63;;
35225;SDS011;21813;49.686;21.766;2023-09-08T06:35:34;12.95;;;8.65;;
35225;SDS011;21813;49.686;21.766;2023-09-08T06:38:01;10.93;;;8.57;;
35225;SDS011;21813;49.686;21.766;2023-09-08T06:40:30;12.43;;;8.32;;
35225;SDS011;21813;49.686;21.766;2023-09-08T06:43:13;13.02;;;7.43;;
35225;SDS011;21813;49.686;21.766;2023-09-08T06:45:50;12.68;;;7.80;;
35225;SDS011;21813;49.686;21.766;2023-09-08T06:51:16;14.88;;;6.80;;
35225;SDS011;21813;49.686;21.766;2023-09-08T06:54:02;13.77;;;6.53;;
35225;SDS011;21813;49.686;21.766;2023-09-08T06:56:28;13.65;;;7.30;;
35225;SDS011;21813;49.686;21.766;2023-09-08T06:59:03;13.57;;;7.22;;
35225;SDS011;21813;49.686;21.766;2023-09-08T07:01:28;13.48;;;6.65;;
35225;SDS011;21813;49.686;21.766;2023-09-08T07:03:59;10.52;;;6.57;;
35225;SDS011;21813;49.686;21.766;2023-09-08T07:06:24;15.27;;;6.82;;
35225;SDS011;21813;49.686;21.766;2023-09-08T07:08:52;10.02;;;6.10;;
35225;SDS011;21813;49.686;21.766;2023-09-08T07:11:18;12.65;;;6.55;;
35225;SDS011;21813;49.686;21.766;2023-09-08T07:13:44;16.02;;;7.13;;
35225;SDS011;21813;49.686;21.766;2023-09-08T07:16:10;12.70;;;6.13;;
35225;SDS011;21813;49.686;21.766;2023-09-08T07:21:39;11.68;;;5.68;;
35225;SDS011;21813;49.686;21.766;2023-09-08T07:24:28;10.02;;;5.07;;
35225;SDS011;21813;49.686;21.766;2023-09-08T07:26:55;11.52;;;5.07;;
35225;SDS011;21813;49.686;21.766;2023-09-08T07:29:23;10.07;;;5.60;;
35225;SDS011;21813;49.686;21.766;2023-09-08T07:31:49;13.88;;;5.32;;
35225;SDS011;21813;49.686;21.766;2023-09-08T07:34:30;9.27;;;5.00;;
35225;SDS011;21813;49.686;21.766;2023-09-08T07:36:56;9.30;;;5.43;;
35225;SDS011;21813;49.686;21.766;2023-09-08T07:39:42;10.98;;;4.90;;
35225;SDS011;21813;49.686;21.766;2023-09-08T07:42:22;7.47;;;5.45;;
35225;SDS011;21813;49.686;21.766;2023-09-08T07:45:16;8.18;;;5.13;;
35225;SDS011;21813;49.686;21.766;2023-09-08T07:47:55;13.88;;;5.03;;
35225;SDS011;21813;49.686;21.766;2023-09-08T07:50:22;9.65;;;5.07;;
35225;SDS011;21813;49.686;21.766;2023-09-08T07:53:15;26.50;;;6.32;;
35225;SDS011;21813;49.686;21.766;2023-09-08T07:55:58;9.98;;;5.55;;
35225;SDS011;21813;49.686;21.766;2023-09-08T07:58:40;9.10;;;5.35;;
35225;SDS011;21813;49.686;21.766;2023-09-08T08:01:09;9.95;;;5.40;;
35225;SDS011;21813;49.686;21.766;2023-09-08T08:03:49;8.77;;;5.57;;
35225;SDS011;21813;49.686;21.766;2023-09-08T08:06:26;9.50;;;5.18;;
35225;SDS011;21813;49.686;21.766;2023-09-08T08:08:58;14.27;;;5.13;;
35225;SDS011;21813;49.686;21.766;2023-09-08T08:11:38;16.08;;;6.13;;
35225;SDS011;21813;49.686;21.766;2023-09-08T08:14:37;10.50;;;5.70;;
35225;SDS011;21813;49.686;21.766;2023-09-08T08:17:18;10.13;;;6.32;;
35225;SDS011;21813;49.686;21.766;2023-09-08T08:19:45;14.57;;;6.25;;
35225;SDS011;21813;49.686;21.766;2023-09-08T08:22:42;11.20;;;5.90;;
35225;SDS011;21813;49.686;21.766;2023-09-08T08:25:27;9.30;;;5.95;;
35225;SDS011;21813;49.686;21.766;2023-09-08T08:27:53;8.20;;;5.88;;
35225;SDS011;21813;49.686;21.766;2023-09-08T08:30:43;9.45;;;6.00;;
35225;SDS011;21813;49.686;21.766;2023-09-08T08:36:04;16.02;;;6.45;;
35225;SDS011;21813;49.686;21.766;2023-09-08T08:38:31;15.27;;;6.53;;
35225;SDS011;21813;49.686;21.766;2023-09-08T08:46:30;11.77;;;6.05;;
35225;SDS011;21813;49.686;21.766;2023-09-08T08:52:29;10.95;;;6.28;;
35225;SDS011;21813;49.686;21.766;2023-09-08T08:55:06;14.75;;;6.32;;
35225;SDS011;21813;49.686;21.766;2023-09-08T09:01:44;11.10;;;6.30;;
35225;SDS011;21813;49.686;21.766;2023-09-08T09:20:54;12.50;;;6.22;;
35225;SDS011;21813;49.686;21.766;2023-09-08T09:23:58;12.48;;;5.88;;
35225;SDS011;21813;49.686;21.766;2023-09-08T09:26:30;10.52;;;5.38;;
35225;SDS011;21813;49.686;21.766;2023-09-08T09:29:19;12.38;;;5.00;;
35225;SDS011;21813;49.686;21.766;2023-09-08T09:32:10;11.18;;;5.18;;
35225;SDS011;21813;49.686;21.766;2023-09-08T09:34:52;22.52;;;5.25;;
35225;SDS011;21813;49.686;21.766;2023-09-08T09:57:02;10.30;;;5.45;;
35225;SDS011;21813;49.686;21.766;2023-09-08T09:59:43;9.68;;;4.60;;
35225;SDS011;21813;49.686;21.766;2023-09-08T10:02:34;7.03;;;4.15;;
35225;SDS011;21813;49.686;21.766;2023-09-08T10:05:12;9.07;;;5.00;;
35225;SDS011;21813;49.686;21.766;2023-09-08T10:07:56;6.60;;;4.28;;
35225;SDS011;21813;49.686;21.766;2023-09-08T10:10:36;5.22;;;4.10;;
35225;SDS011;21813;49.686;21.766;2023-09-08T10:13:14;8.23;;;4.60;;
35225;SDS011;21813;49.686;21.766;2023-09-08T10:20:28;7.00;;;4.53;;
35225;SDS011;21813;49.686;21.766;2023-09-08T10:23:02;4.88;;;3.92;;
35225;SDS011;21813;49.686;21.766;2023-09-08T10:25:37;6.93;;;4.90;;
35225;SDS011;21813;49.686;21.766;2023-09-08T10:28:09;7.75;;;4.85;;
35225;SDS011;21813;49.686;21.766;2023-09-08T10:31:18;9.90;;;5.72;;
35225;SDS011;21813;49.686;21.766;2023-09-08T10:33:44;7.47;;;5.13;;
35225;SDS011;21813;49.686;21.766;2023-09-08T10:47:32;5.47;;;4.10;;
35225;SDS011;21813;49.686;21.766;2023-09-08T10:53:05;6.25;;;4.38;;
35225;SDS011;21813;49.686;21.766;2023-09-08T10:55:39;8.52;;;5.00;;
35225;SDS011;21813;49.686;21.766;2023-09-08T10:58:06;6.68;;;3.80;;
35225;SDS011;21813;49.686;21.766;2023-09-08T11:00:43;11.00;;;4.35;;
35225;SDS011;21813;49.686;21.766;2023-09-08T11:03:10;7.45;;;4.35;;
35225;SDS011;21813;49.686;21.766;2023-09-08T11:05:38;8.32;;;4.53;;
35225;SDS011;21813;49.686;21.766;2023-09-08T11:08:04;8.15;;;4.78;;
35225;SDS011;21813;49.686;21.766;2023-09-08T11:10:31;8.27;;;4.65;;
35225;SDS011;21813;49.686;21.766;2023-09-08T11:12:58;7.20;;;4.10;;
35225;SDS011;21813;49.686;21.766;2023-09-08T11:15:27;6.63;;;3.83;;
35225;SDS011;21813;49.686;21.766;2023-09-08T11:17:52;6.50;;;4.38;;
35225;SDS011;21813;49.686;21.766;2023-09-08T11:20:26;7.65;;;4.68;;
35225;SDS011;21813;49.686;21.766;2023-09-08T11:22:52;8.05;;;3.80;;
35225;SDS011;21813;49.686;21.766;2023-09-08T11:25:20;7.32;;;4.38;;
35225;SDS011;21813;49.686;21.766;2023-09-08T11:27:46;7.60;;;4.25;;
35225;SDS011;21813;49.686;21.766;2023-09-08T11:30:17;5.20;;;4.25;;
35225;SDS011;21813;49.686;21.766;2023-09-08T11:32:42;6.60;;;4.63;;
35225;SDS011;21813;49.686;21.766;2023-09-08T11:35:10;7.07;;;4.20;;
35225;SDS011;21813;49.686;21.766;2023-09-08T11:37:42;9.18;;;4.68;;
35225;SDS011;21813;49.686;21.766;2023-09-08T11:40:26;9.32;;;4.68;;
35225;SDS011;21813;49.686;21.766;2023-09-08T11:46:45;10.23;;;4.37;;
35225;SDS011;21813;49.686;21.766;2023-09-08T11:49:21;10.55;;;4.32;;
35225;SDS011;21813;49.686;21.766;2023-09-08T11:52:40;9.55;;;4.50;;
35225;SDS011;21813;49.686;21.766;2023-09-08T11:55:09;8.70;;;4.47;;
35225;SDS011;21813;49.686;21.766;2023-09-08T11:57:38;7.35;;;4.07;;
35225;SDS011;21813;49.686;21.766;2023-09-08T12:00:11;8.38;;;4.30;;
35225;SDS011;21813;49.686;21.766;2023-09-08T12:02:42;10.90;;;4.18;;
35225;SDS011;21813;49.686;21.766;2023-09-08T12:05:12;10.98;;;4.15;;
35225;SDS011;21813;49.686;21.766;2023-09-08T12:07:49;6.13;;;4.22;;
35225;SDS011;21813;49.686;21.766;2023-09-08T12:13:20;5.32;;;4.13;;
35225;SDS011;21813;49.686;21.766;2023-09-08T12:15:48;9.02;;;4.25;;
35225;SDS011;21813;49.686;21.766;2023-09-08T12:18:14;8.02;;;4.72;;
35225;SDS011;21813;49.686;21.766;2023-09-08T12:21:15;11.60;;;4.15;;
35225;SDS011;21813;49.686;21.766;2023-09-08T12:23:50;7.28;;;4.65;;
35225;SDS011;21813;49.686;21.766;2023-09-08T12:26:19;7.85;;;4.28;;
35225;SDS011;21813;49.686;21.766;2023-09-08T12:28:48;8.30;;;4.72;;
35225;SDS011;21813;49.686;21.766;2023-09-08T12:31:16;10.02;;;4.32;;
35225;SDS011;21813;49.686;21.766;2023-09-08T12:33:43;6.72;;;4.88;;
35225;SDS011;21813;49.686;21.766;2023-09-08T12:36:14;7.28;;;4.68;;
35225;SDS011;21813;49.686;21.766;2023-09-08T12:38:49;9.95;;;4.60;;
35225;SDS011;21813;49.686;21.766;2023-09-08T12:41:18;6.13;;;4.28;;
35225;SDS011;21813;49.686;21.766;2023-09-08T12:43:45;11.98;;;4.72;;
35225;SDS011;21813;49.686;21.766;2023-09-08T12:46:12;7.22;;;4.05;;
35225;SDS011;21813;49.686;21.766;2023-09-08T12:48:38;6.05;;;4.55;;
35225;SDS011;21813;49.686;21.766;2023-09-08T12:51:08;5.60;;;4.18;;
35225;SDS011;21813;49.686;21.766;2023-09-08T12:53:34;8.90;;;4.63;;
35225;SDS011;21813;49.686;21.766;2023-09-08T12:56:01;7.05;;;4.00;;
35225;SDS011;21813;49.686;21.766;2023-09-08T12:58:26;5.47;;;4.00;;
35225;SDS011;21813;49.686;21.766;2023-09-08T13:00:55;8.43;;;4.40;;
35225;SDS011;21813;49.686;21.766;2023-09-08T13:03:21;5.75;;;4.00;;
35225;SDS011;21813;49.686;21.766;2023-09-08T13:05:48;7.45;;;3.85;;
35225;SDS011;21813;49.686;21.766;2023-09-08T13:08:14;6.53;;;4.38;;
35225;SDS011;21813;49.686;21.766;2023-09-08T13:10:47;6.53;;;4.05;;
35225;SDS011;21813;49.686;21.766;2023-09-08T13:13:13;8.27;;;4.45;;
35225;SDS011;21813;49.686;21.766;2023-09-08T13:15:54;7.20;;;3.83;;
35225;SDS011;21813;49.686;21.766;2023-09-08T13:24:22;6.68;;;4.18;;
35225;SDS011;21813;49.686;21.766;2023-09-08T13:26:48;5.47;;;4.45;;
35225;SDS011;21813;49.686;21.766;2023-09-08T13:29:16;5.45;;;4.05;;
35225;SDS011;21813;49.686;21.766;2023-09-08T13:31:42;5.95;;;3.80;;
35225;SDS011;21813;49.686;21.766;2023-09-08T13:34:09;6.20;;;3.72;;
35225;SDS011;21813;49.686;21.766;2023-09-08T13:36:35;8.63;;;4.43;;
35225;SDS011;21813;49.686;21.766;2023-09-08T13:39:02;7.72;;;4.72;;
35225;SDS011;21813;49.686;21.766;2023-09-08T13:41:56;7.75;;;5.03;;
35225;SDS011;21813;49.686;21.766;2023-09-08T13:44:26;10.27;;;4.55;;
35225;SDS011;21813;49.686;21.766;2023-09-08T13:47:00;7.03;;;4.50;;
35225;SDS011;21813;49.686;21.766;2023-09-08T13:49:28;10.50;;;4.65;;
35225;SDS011;21813;49.686;21.766;2023-09-08T13:51:53;5.63;;;3.88;;
35225;SDS011;21813;49.686;21.766;2023-09-08T13:54:21;7.10;;;4.20;;
35225;SDS011;21813;49.686;21.766;2023-09-08T13:56:56;7.05;;;4.35;;
35225;SDS011;21813;49.686;21.766;2023-09-08T13:59:27;7.13;;;4.00;;
35225;SDS011;21813;49.686;21.766;2023-09-08T14:01:54;5.63;;;4.35;;
35225;SDS011;21813;49.686;21.766;2023-09-08T14:04:25;7.25;;;4.28;;
35225;SDS011;21813;49.686;21.766;2023-09-08T14:06:51;8.60;;;4.80;;
35225;SDS011;21813;49.686;21.766;2023-09-08T14:09:18;6.47;;;4.10;;
35225;SDS011;21813;49.686;21.766;2023-09-08T14:11:43;7.97;;;4.80;;
35225;SDS011;21813;49.686;21.766;2023-09-08T14:14:11;7.45;;;4.43;;
35225;SDS011;21813;49.686;21.766;2023-09-08T14:16:37;11.10;;;4.75;;
35225;SDS011;21813;49.686;21.766;2023-09-08T14:19:04;5.75;;;4.35;;
35225;SDS011;21813;49.686;21.766;2023-09-08T14:21:30;9.10;;;4.22;;
35225;SDS011;21813;49.686;21.766;2023-09-08T14:30:46;10.20;;;4.85;;
35225;SDS011;21813;49.686;21.766;2023-09-08T15:04:39;7.88;;;4.45;;
35225;SDS011;21813;49.686;21.766;2023-09-08T15:07:12;6.03;;;4.22;;
35225;SDS011;21813;49.686;21.766;2023-09-08T15:09:38;7.55;;;4.53;;
35225;SDS011;21813;49.686;21.766;2023-09-08T15:14:37;7.97;;;4.63;;
35225;SDS011;21813;49.686;21.766;2023-09-08T15:17:05;5.70;;;4.18;;
35225;SDS011;21813;49.686;21.766;2023-09-08T15:19:32;5.13;;;4.25;;
35225;SDS011;21813;49.686;21.766;2023-09-08T15:22:00;6.75;;;4.50;;
35225;SDS011;21813;49.686;21.766;2023-09-08T15:24:25;12.00;;;4.20;;
35225;SDS011;21813;49.686;21.766;2023-09-08T15:26:53;6.75;;;4.25;;
35225;SDS011;21813;49.686;21.766;2023-09-08T15:29:18;5.95;;;4.35;;
35225;SDS011;21813;49.686;21.766;2023-09-08T15:31:45;7.03;;;4.28;;
35225;SDS011;21813;49.686;21.766;2023-09-08T15:34:12;6.47;;;4.28;;
35225;SDS011;21813;49.686;21.766;2023-09-08T15:36:39;5.97;;;3.97;;
35225;SDS011;21813;49.686;21.766;2023-09-08T15:39:05;9.60;;;5.10;;
35225;SDS011;21813;49.686;21.766;2023-09-08T15:41:32;8.07;;;4.90;;
35225;SDS011;21813;49.686;21.766;2023-09-08T15:44:16;9.50;;;4.72;;
35225;SDS011;21813;49.686;21.766;2023-09-08T15:49:52;10.43;;;4.68;;
35225;SDS011;21813;49.686;21.766;2023-09-08T15:52:26;6.68;;;4.45;;
35225;SDS011;21813;49.686;21.766;2023-09-08T15:54:52;7.40;;;4.72;;
35225;SDS011;21813;49.686;21.766;2023-09-08T15:57:21;8.20;;;5.43;;
35225;SDS011;21813;49.686;21.766;2023-09-08T15:59:47;7.97;;;5.28;;
35225;SDS011;21813;49.686;21.766;2023-09-08T16:02:28;9.38;;;5.90;;
35225;SDS011;21813;49.686;21.766;2023-09-08T16:04:56;8.70;;;5.32;;
35225;SDS011;21813;49.686;21.766;2023-09-08T16:07:22;8.82;;;5.50;;
35225;SDS011;21813;49.686;21.766;2023-09-08T16:09:54;7.38;;;4.65;;
35225;SDS011;21813;49.686;21.766;2023-09-08T16:12:21;7.22;;;5.53;;
35225;SDS011;21813;49.686;21.766;2023-09-08T16:14:50;8.10;;;5.47;;
35225;SDS011;21813;49.686;21.766;2023-09-08T16:17:15;9.30;;;5.50;;
35225;SDS011;21813;49.686;21.766;2023-09-08T16:19:43;12.82;;;5.88;;
35225;SDS011;21813;49.686;21.766;2023-09-08T16:22:09;9.93;;;5.70;;
35225;SDS011;21813;49.686;21.766;2023-09-08T16:24:37;9.20;;;5.63;;
35225;SDS011;21813;49.686;21.766;2023-09-08T16:27:03;10.48;;;5.90;;
35225;SDS011;21813;49.686;21.766;2023-09-08T16:29:30;8.20;;;5.28;;
35225;SDS011;21813;49.686;21.766;2023-09-08T16:31:56;8.50;;;5.30;;
35225;SDS011;21813;49.686;21.766;2023-09-08T16:34:22;10.70;;;5.95;;
35225;SDS011;21813;49.686;21.766;2023-09-08T16:36:48;9.10;;;6.28;;
35225;SDS011;21813;49.686;21.766;2023-09-08T16:39:16;11.68;;;5.63;;
35225;SDS011;21813;49.686;21.766;2023-09-08T16:41:42;8.77;;;5.50;;
35225;SDS011;21813;49.686;21.766;2023-09-08T16:44:11;9.73;;;5.93;;
35225;SDS011;21813;49.686;21.766;2023-09-08T16:46:37;9.77;;;5.72;;
35225;SDS011;21813;49.686;21.766;2023-09-08T16:49:04;9.48;;;6.57;;
35225;SDS011;21813;49.686;21.766;2023-09-08T16:51:30;9.80;;;6.25;;
35225;SDS011;21813;49.686;21.766;2023-09-08T16:56:40;10.73;;;6.53;;
35225;SDS011;21813;49.686;21.766;2023-09-08T16:59:07;14.13;;;5.75;;
35225;SDS011;21813;49.686;21.766;2023-09-08T17:01:33;10.13;;;7.03;;
35225;SDS011;21813;49.686;21.766;2023-09-08T17:04:02;13.43;;;6.65;;
35225;SDS011;21813;49.686;21.766;2023-09-08T17:06:29;15.93;;;7.13;;
35225;SDS011;21813;49.686;21.766;2023-09-08T17:08:58;14.63;;;7.88;;
35225;SDS011;21813;49.686;21.766;2023-09-08T17:11:24;11.30;;;7.28;;
35225;SDS011;21813;49.686;21.766;2023-09-08T17:14:02;10.43;;;6.65;;
35225;SDS011;21813;49.686;21.766;2023-09-08T17:16:27;14.43;;;8.27;;
35225;SDS011;21813;49.686;21.766;2023-09-08T17:19:00;14.50;;;8.05;;
35225;SDS011;21813;49.686;21.766;2023-09-08T17:21:26;16.67;;;9.77;;
35225;SDS011;21813;49.686;21.766;2023-09-08T17:23:55;20.27;;;9.68;;
35225;SDS011;21813;49.686;21.766;2023-09-08T17:26:20;18.73;;;10.23;;
35225;SDS011;21813;49.686;21.766;2023-09-08T17:28:49;15.95;;;10.32;;
35225;SDS011;21813;49.686;21.766;2023-09-08T17:31:14;18.70;;;10.80;;
35225;SDS011;21813;49.686;21.766;2023-09-08T17:33:42;17.48;;;10.50;;
35225;SDS011;21813;49.686;21.766;2023-09-08T17:36:07;19.77;;;11.20;;
35225;SDS011;21813;49.686;21.766;2023-09-08T17:38:35;20.42;;;11.52;;
35225;SDS011;21813;49.686;21.766;2023-09-08T17:41:01;18.48;;;9.70;;
35225;SDS011;21813;49.686;21.766;2023-09-08T17:43:30;19.55;;;9.95;;
35225;SDS011;21813;49.686;21.766;2023-09-08T17:45:56;16.42;;;10.57;;
35225;SDS011;21813;49.686;21.766;2023-09-08T17:48:27;23.80;;;11.73;;
35225;SDS011;21813;49.686;21.766;2023-09-08T17:50:52;18.55;;;10.82;;
35225;SDS011;21813;49.686;21.766;2023-09-08T17:53:20;17.88;;;10.10;;
35225;SDS011;21813;49.686;21.766;2023-09-08T17:55:46;20.25;;;11.77;;
35225;SDS011;21813;49.686;21.766;2023-09-08T17:58:15;19.98;;;11.18;;
35225;SDS011;21813;49.686;21.766;2023-09-08T18:00:43;20.48;;;11.68;;
35225;SDS011;21813;49.686;21.766;2023-09-08T18:03:14;24.73;;;11.70;;
35225;SDS011;21813;49.686;21.766;2023-09-08T18:05:39;19.90;;;12.35;;
35225;SDS011;21813;49.686;21.766;2023-09-08T18:08:10;23.58;;;12.20;;
35225;SDS011;21813;49.686;21.766;2023-09-08T18:11:02;21.05;;;11.85;;
35225;SDS011;21813;49.686;21.766;2023-09-08T18:13:31;18.58;;;12.25;;
35225;SDS011;21813;49.686;21.766;2023-09-08T18:16:01;20.25;;;12.52;;
35225;SDS011;21813;49.686;21.766;2023-09-08T18:18:32;22.95;;;12.65;;
35225;SDS011;21813;49.686;21.766;2023-09-08T18:20:58;22.00;;;12.75;;
35225;SDS011;21813;49.686;21.766;2023-09-08T18:23:34;26.35;;;12.18;;
35225;SDS011;21813;49.686;21.766;2023-09-08T18:26:00;26.05;;;13.38;;
35225;SDS011;21813;49.686;21.766;2023-09-08T18:28:31;22.92;;;13.27;;
35225;SDS011;21813;49.686;21.766;2023-09-08T18:31:06;19.25;;;12.48;;
35225;SDS011;21813;49.686;21.766;2023-09-08T18:33:42;24.25;;;12.70;;
35225;SDS011;21813;49.686;21.766;2023-09-08T18:36:08;24.30;;;12.38;;
35225;SDS011;21813;49.686;21.766;2023-09-08T18:38:40;22.00;;;13.02;;
35225;SDS011;21813;49.686;21.766;2023-09-08T18:43:33;31.48;;;14.77;;
35225;SDS011;21813;49.686;21.766;2023-09-08T18:45:59;29.05;;;15.48;;
35225;SDS011;21813;49.686;21.766;2023-09-08T18:48:41;31.05;;;16.38;;
35225;SDS011;21813;49.686;21.766;2023-09-08T18:56:46;31.85;;;16.85;;
35225;SDS011;21813;49.686;21.766;2023-09-08T18:59:15;33.35;;;18.65;;
35225;SDS011;21813;49.686;21.766;2023-09-08T19:01:41;38.38;;;18.17;;
35225;SDS011;21813;49.686;21.766;2023-09-08T19:04:08;39.53;;;20.10;;
35225;SDS011;21813;49.686;21.766;2023-09-08T19:06:34;34.75;;;19.13;;
35225;SDS011;21813;49.686;21.766;2023-09-08T19:09:02;34.22;;;20.13;;
35225;SDS011;21813;49.686;21.766;2023-09-08T19:11:31;37.95;;;19.75;;
35225;SDS011;21813;49.686;21.766;2023-09-08T19:14:03;39.40;;;20.95;;
35225;SDS011;21813;49.686;21.766;2023-09-08T19:16:29;44.28;;;23.23;;
35225;SDS011;21813;49.686;21.766;2023-09-08T19:18:57;43.47;;;21.85;;
35225;SDS011;21813;49.686;21.766;2023-09-08T19:21:24;49.92;;;25.02;;
35225;SDS011;21813;49.686;21.766;2023-09-08T19:23:52;53.53;;;26.15;;
35225;SDS011;21813;49.686;21.766;2023-09-08T19:26:18;45.92;;;25.38;;